createdAt,value
2023-09-08T00:01:25.870Z,60.41
2023-09-08T00:03:53.652Z,60.76
2023-09-08T00:06:21.335Z,60.94
2023-09-08T00:08:48.949Z,60.86
2023-09-08T00:11:16.526Z,60.83
2023-09-08T00:13:44.126Z,61.06
2023-09-08T00:16:12.464Z,60.84
2023-09-08T00:18:40.133Z,61.41
2023-09-08T00:21:07.760Z,61.07
2023-09-08T00:23:35.339Z,61.46
2023-09-08T00:26:03.014Z,61.29
2023-09-08T00:28:30.625Z,61.75
2023-09-08T00:30:58.823Z,61.13
2023-09-08T00:33:26.445Z,61.46
2023-09-08T00:35:54.603Z,61.19
2023-09-08T00:38:22.181Z,61.37
2023-09-08T00:40:50.247Z,61.25
2023-09-08T00:43:17.923Z,61.91
2023-09-08T00:45:45.570Z,61.60
2023-09-08T00:48:13.354Z,61.99
2023-09-08T00:50:41.254Z,61.78
2023-09-08T00:53:08.874Z,61.78
2023-09-08T00:55:37.553Z,61.60
2023-09-08T00:58:05.097Z,61.81
2023-09-08T01:00:33.124Z,61.58
2023-09-08T01:03:01.329Z,62.46
2023-09-08T01:05:29.110Z,61.89
2023-09-08T01:07:57.477Z,62.40
2023-09-08T01:10:25.086Z,62.43
2023-09-08T01:12:52.811Z,62.80
2023-09-08T01:15:20.553Z,62.04
2023-09-08T01:17:48.464Z,62.08
2023-09-08T01:20:16.642Z,61.98
2023-09-08T01:22:44.243Z,61.84
2023-09-08T01:25:12.264Z,61.87
2023-09-08T01:27:39.996Z,62.18
2023-09-08T01:30:07.574Z,62.26
2023-09-08T01:32:35.146Z,62.06
2023-09-08T01:35:02.701Z,62.41
2023-09-08T01:37:30.281Z,61.78
2023-09-08T01:39:57.832Z,61.91
2023-09-08T01:42:25.415Z,62.23
2023-09-08T01:44:52.981Z,61.99
2023-09-08T01:47:20.512Z,62.23
2023-09-08T01:49:48.053Z,62.73
2023-09-08T01:52:15.582Z,62.10
2023-09-08T01:54:43.144Z,62.74
2023-09-08T01:57:10.886Z,62.31
2023-09-08T01:59:39.091Z,62.30
2023-09-08T02:02:06.656Z,62.80
2023-09-08T02:04:34.607Z,62.55
2023-09-08T02:07:02.863Z,63.20
2023-09-08T02:09:30.615Z,62.58
2023-09-08T02:11:58.202Z,63.37
2023-09-08T02:14:25.852Z,62.64
2023-09-08T02:16:53.406Z,62.97
2023-09-08T02:19:21.059Z,63.00
2023-09-08T02:21:48.631Z,63.43
2023-09-08T02:24:16.143Z,63.56
2023-09-08T02:26:43.771Z,63.76
2023-09-08T02:29:12.265Z,63.78
2023-09-08T02:31:39.785Z,64.29
2023-09-08T02:34:07.341Z,63.35
2023-09-08T02:36:34.904Z,63.56
2023-09-08T02:39:02.445Z,64.33
2023-09-08T02:41:29.991Z,63.87
2023-09-08T02:43:57.617Z,64.09
2023-09-08T02:46:25.857Z,63.72
2023-09-08T02:48:53.941Z,63.77
2023-09-08T02:51:21.942Z,63.66
2023-09-08T02:53:49.503Z,63.88
2023-09-08T02:56:17.086Z,63.79
2023-09-08T02:58:45.453Z,64.43
2023-09-08T03:01:14.661Z,64.32
2023-09-08T03:03:42.430Z,64.41
2023-09-08T03:06:10.031Z,64.33
2023-09-08T03:08:38.195Z,64.54
2023-09-08T03:11:05.852Z,64.07
2023-09-08T03:13:35.228Z,64.26
2023-09-08T03:16:02.858Z,63.67
2023-09-08T03:18:30.551Z,64.12
2023-09-08T03:20:58.113Z,64.36
2023-09-08T03:23:25.680Z,63.91
2023-09-08T03:25:53.260Z,64.06
2023-09-08T03:28:20.812Z,64.35
2023-09-08T03:30:48.358Z,63.97
2023-09-08T03:33:16.152Z,63.76
2023-09-08T03:35:45.615Z,63.73
2023-09-08T03:38:13.162Z,64.08
2023-09-08T03:40:40.720Z,64.25
2023-09-08T03:43:08.249Z,64.44
2023-09-08T03:45:35.940Z,64.15
2023-09-08T03:48:03.559Z,63.90
2023-09-08T03:50:31.104Z,64.39
2023-09-08T03:52:58.670Z,64.39
2023-09-08T03:55:26.268Z,64.43
2023-09-08T03:57:54.655Z,64.17
2023-09-08T04:00:23.654Z,64.33
2023-09-08T04:02:51.407Z,64.74
2023-09-08T04:05:19.116Z,64.53
2023-09-08T04:07:46.842Z,64.89
2023-09-08T04:10:14.806Z,64.90
2023-09-08T04:12:42.435Z,64.82
2023-09-08T04:15:10.110Z,64.68
2023-09-08T04:17:38.470Z,64.98
2023-09-08T04:20:06.980Z,65.02
2023-09-08T04:22:34.555Z,65.21
2023-09-08T04:25:02.142Z,65.30
2023-09-08T04:27:29.702Z,64.73
2023-09-08T04:29:57.315Z,64.74
2023-09-08T04:32:24.922Z,64.98
2023-09-08T04:34:52.511Z,65.07
2023-09-08T04:37:20.098Z,65.40
2023-09-08T04:39:47.660Z,65.24
2023-09-08T04:42:15.598Z,65.42
2023-09-08T04:44:43.138Z,65.54
2023-09-08T04:47:10.780Z,65.52
2023-09-08T04:49:39.582Z,65.57
2023-09-08T04:52:07.103Z,65.41
2023-09-08T04:54:34.736Z,65.89
2023-09-08T04:57:16.037Z,65.48
2023-09-08T04:59:48.447Z,65.58
2023-09-08T05:02:16.637Z,64.91
2023-09-08T05:04:44.300Z,65.71
2023-09-08T05:07:13.735Z,65.77
2023-09-08T05:09:41.341Z,64.94
2023-09-08T05:12:08.972Z,65.13
2023-09-08T05:14:36.666Z,65.00
2023-09-08T05:17:04.284Z,65.33
2023-09-08T05:19:31.798Z,65.22
2023-09-08T05:21:59.410Z,65.00
2023-09-08T05:24:28.331Z,64.75
2023-09-08T05:26:56.125Z,64.76
2023-09-08T05:29:23.814Z,64.65
2023-09-08T05:31:51.379Z,64.28
2023-09-08T05:34:19.011Z,64.75
2023-09-08T05:36:46.764Z,63.92
2023-09-08T05:39:14.821Z,64.16
2023-09-08T05:41:42.386Z,64.08
2023-09-08T05:44:10.079Z,63.67
2023-09-08T05:46:37.827Z,63.80
2023-09-08T05:49:05.551Z,63.92
2023-09-08T05:51:33.225Z,63.35
2023-09-08T05:54:00.821Z,63.29
2023-09-08T05:56:28.416Z,63.68
2023-09-08T05:58:56.012Z,63.33
2023-09-08T06:01:23.956Z,63.14
2023-09-08T06:03:51.775Z,62.76
2023-09-08T06:06:19.956Z,62.36
2023-09-08T06:08:47.508Z,62.39
2023-09-08T06:11:15.164Z,61.68
2023-09-08T06:13:43.629Z,61.96
2023-09-08T06:16:11.400Z,62.14
2023-09-08T06:18:41.538Z,61.90
2023-09-08T06:21:09.474Z,61.77
2023-09-08T06:23:38.096Z,61.41
2023-09-08T06:26:06.354Z,61.04
2023-09-08T06:28:34.677Z,60.77
2023-09-08T06:31:02.743Z,60.41
2023-09-08T06:33:30.579Z,60.25
2023-09-08T06:35:58.464Z,60.62
2023-09-08T06:38:26.846Z,60.19
2023-09-08T06:40:55.155Z,60.45
2023-09-08T06:43:22.869Z,60.29
2023-09-08T06:45:51.209Z,60.18
2023-09-08T06:48:18.912Z,60.30
2023-09-08T06:50:47.187Z,60.19
2023-09-08T06:53:15.049Z,59.30
2023-09-08T06:55:45.567Z,59.23
2023-09-08T06:58:16.095Z,59.14
2023-09-08T07:00:43.875Z,58.97
2023-09-08T07:03:11.905Z,58.48
2023-09-08T07:05:39.801Z,58.60
2023-09-08T07:08:07.835Z,58.04
2023-09-08T07:10:35.589Z,57.84
2023-09-08T07:13:03.723Z,57.67
2023-09-08T07:15:32.226Z,57.33
2023-09-08T07:18:00.050Z,56.86
2023-09-08T07:20:27.800Z,56.98
2023-09-08T07:22:55.916Z,57.24
2023-09-08T07:25:23.599Z,56.75
2023-09-08T07:27:54.004Z,56.83
2023-09-08T07:30:21.625Z,56.48
2023-09-08T07:32:49.371Z,56.66
2023-09-08T07:35:18.330Z,56.78
2023-09-08T07:37:46.102Z,56.15
2023-09-08T07:40:14.195Z,55.73
2023-09-08T07:42:42.086Z,56.33
2023-09-08T07:45:10.974Z,55.77
2023-09-08T07:47:39.687Z,55.74
2023-09-08T07:50:07.667Z,55.07
2023-09-08T07:52:35.751Z,55.35
2023-09-08T07:55:04.819Z,54.87
2023-09-08T07:57:32.988Z,54.58
2023-09-08T08:00:00.630Z,54.56
2023-09-08T08:02:28.390Z,54.06
2023-09-08T08:04:56.232Z,53.58
2023-09-08T08:07:23.974Z,53.55
2023-09-08T08:09:51.657Z,53.73
2023-09-08T08:12:19.590Z,53.50
2023-09-08T08:14:47.349Z,52.87
2023-09-08T08:17:15.167Z,52.62
2023-09-08T08:19:42.928Z,52.66
2023-09-08T08:22:10.790Z,52.62
2023-09-08T08:24:38.754Z,52.92
2023-09-08T08:27:06.500Z,52.56
2023-09-08T08:29:34.475Z,52.56
2023-09-08T08:32:02.164Z,51.89
2023-09-08T08:34:29.868Z,52.17
2023-09-08T08:36:57.553Z,52.01
2023-09-08T08:39:25.258Z,51.82
2023-09-08T08:41:53.542Z,51.24
2023-09-08T08:44:21.248Z,51.26
2023-09-08T08:46:49.054Z,51.17
2023-09-08T08:49:16.938Z,50.70
2023-09-08T08:51:44.751Z,50.46
2023-09-08T08:54:12.433Z,50.31
2023-09-08T08:56:40.295Z,50.19
2023-09-08T08:59:08.024Z,50.21
2023-09-08T09:01:35.671Z,50.35
2023-09-08T09:04:03.793Z,50.19
2023-09-08T09:06:31.585Z,49.85
2023-09-08T09:08:59.711Z,50.06
2023-09-08T09:11:27.417Z,49.86
2023-09-08T09:13:55.191Z,49.52
2023-09-08T09:16:22.887Z,49.06
2023-09-08T09:18:51.337Z,48.98
2023-09-08T09:21:19.015Z,48.62
2023-09-08T09:23:46.730Z,47.54
2023-09-08T09:26:15.264Z,48.08
2023-09-08T09:28:43.136Z,47.18
2023-09-08T09:31:12.463Z,47.15
2023-09-08T09:33:40.459Z,47.06
2023-09-08T09:36:08.555Z,47.21
2023-09-08T09:38:36.720Z,46.78
2023-09-08T09:41:04.814Z,47.05
2023-09-08T09:43:32.669Z,46.50
2023-09-08T09:46:00.358Z,46.60
2023-09-08T09:48:28.358Z,46.24
2023-09-08T09:50:56.019Z,46.21
2023-09-08T09:53:23.717Z,45.67
2023-09-08T09:55:52.092Z,45.00
2023-09-08T09:58:19.847Z,44.08
2023-09-08T10:00:49.659Z,42.48
2023-09-08T10:03:17.876Z,41.55
2023-09-08T10:05:48.168Z,40.32
2023-09-08T10:08:15.913Z,39.62
2023-09-08T10:10:47.331Z,38.75
2023-09-08T10:13:15.193Z,38.03
2023-09-08T10:15:42.921Z,37.84
2023-09-08T10:18:10.860Z,37.57
2023-09-08T10:20:38.878Z,36.67
2023-09-08T10:26:15.482Z,35.89
2023-09-08T10:28:43.195Z,36.09
2023-09-08T10:31:12.824Z,35.81
2023-09-08T10:33:42.229Z,36.35
2023-09-08T10:36:10.031Z,37.24
2023-09-08T10:38:38.111Z,37.36
2023-09-08T10:41:06.180Z,37.72
2023-09-08T10:43:35.604Z,38.17
2023-09-08T10:46:03.904Z,38.11
2023-09-08T10:48:31.898Z,37.82
2023-09-08T10:51:00.276Z,38.13
2023-09-08T10:53:28.075Z,37.47
2023-09-08T10:58:28.205Z,37.93
2023-09-08T11:01:00.574Z,38.44
2023-09-08T11:03:29.022Z,38.44
2023-09-08T11:05:57.559Z,38.13
2023-09-08T11:08:27.214Z,38.17
2023-09-08T11:10:56.674Z,37.89
2023-09-08T11:13:24.300Z,37.64
2023-09-08T11:15:52.128Z,36.79
2023-09-08T11:18:21.005Z,35.78
2023-09-08T11:20:48.859Z,34.61
2023-09-08T11:23:16.733Z,34.77
2023-09-08T11:25:44.463Z,34.38
2023-09-08T11:28:12.169Z,33.73
2023-09-08T11:30:40.010Z,33.45
2023-09-08T11:33:08.906Z,32.71
2023-09-08T11:35:36.751Z,32.62
2023-09-08T11:38:06.087Z,31.58
2023-09-08T11:40:34.030Z,31.62
2023-09-08T11:43:02.472Z,30.99
2023-09-08T11:45:30.632Z,30.77
2023-09-08T11:47:58.356Z,30.13
2023-09-08T11:50:26.235Z,29.84
2023-09-08T11:52:53.925Z,29.20
2023-09-08T11:55:23.846Z,28.65
2023-09-08T11:57:52.418Z,28.25
2023-09-08T12:00:21.093Z,27.51
2023-09-08T12:02:49.020Z,27.28
2023-09-08T12:05:17.023Z,27.47
2023-09-08T12:07:44.774Z,26.69
2023-09-08T12:10:13.240Z,28.05
2023-09-08T12:12:42.010Z,28.09
2023-09-08T12:15:09.801Z,28.35
2023-09-08T12:17:37.681Z,28.13
2023-09-08T12:20:05.628Z,27.90
2023-09-08T12:22:33.667Z,28.36
2023-09-08T12:25:03.259Z,28.28
2023-09-08T12:27:33.115Z,28.76
2023-09-08T12:30:01.669Z,28.83
2023-09-08T12:32:29.540Z,28.96
2023-09-08T12:34:57.282Z,29.24
2023-09-08T12:37:26.520Z,29.89
2023-09-08T12:39:54.776Z,29.62
2023-09-08T12:42:22.491Z,30.12
2023-09-08T12:44:51.305Z,29.74
2023-09-08T12:47:19.272Z,29.36
2023-09-08T12:49:47.182Z,30.44
2023-09-08T12:52:15.398Z,30.53
2023-09-08T12:54:43.104Z,30.81
2023-09-08T12:57:15.420Z,31.70
2023-09-08T12:59:43.408Z,32.12
2023-09-08T13:02:15.107Z,32.90
2023-09-08T13:04:42.951Z,33.30
2023-09-08T13:07:11.024Z,34.15
2023-09-08T13:09:39.068Z,35.10
2023-09-08T13:12:06.939Z,35.25
2023-09-08T13:14:34.820Z,35.70
2023-09-08T13:17:02.668Z,36.20
2023-09-08T13:19:30.681Z,35.68
2023-09-08T13:21:58.566Z,35.67
2023-09-08T13:24:26.800Z,35.27
2023-09-08T13:26:54.604Z,34.74
2023-09-08T13:29:22.566Z,34.25
2023-09-08T13:31:50.501Z,34.65
2023-09-08T13:34:18.782Z,35.31
2023-09-08T13:36:47.010Z,34.81
2023-09-08T13:39:14.925Z,34.63
2023-09-08T13:41:42.740Z,33.32
2023-09-08T13:44:10.573Z,33.43
2023-09-08T13:46:38.473Z,32.88
2023-09-08T13:49:07.266Z,32.75
2023-09-08T13:51:35.731Z,33.33
2023-09-08T13:54:08.037Z,32.71
2023-09-08T13:56:36.498Z,33.12
2023-09-08T13:59:05.095Z,33.67
2023-09-08T14:01:34.941Z,33.20
2023-09-08T14:04:04.235Z,33.24
2023-09-08T14:06:41.113Z,33.53
2023-09-08T14:14:29.290Z,32.57
2023-09-08T14:16:59.098Z,31.80
2023-09-08T14:19:26.914Z,30.97
2023-09-08T14:21:54.834Z,29.98
2023-09-08T14:24:22.777Z,29.61
2023-09-08T14:26:52.348Z,29.15
2023-09-08T14:29:20.293Z,28.79
2023-09-08T14:31:48.145Z,28.10
2023-09-08T14:34:16.214Z,28.00
2023-09-08T14:36:45.572Z,27.84
2023-09-08T14:39:16.296Z,28.11
2023-09-08T14:41:43.999Z,28.60
2023-09-08T14:44:11.904Z,28.35
2023-09-08T14:46:39.862Z,29.07
2023-09-08T14:49:07.666Z,29.42
2023-09-08T14:51:35.565Z,29.94
2023-09-08T14:54:03.321Z,30.57
2023-09-08T14:56:31.166Z,30.52
2023-09-08T14:58:59.104Z,29.71
2023-09-08T15:01:26.865Z,29.88
2023-09-08T15:03:56.361Z,29.43
2023-09-08T15:06:25.994Z,29.06
2023-09-08T15:08:56.035Z,28.23
2023-09-08T15:11:24.177Z,28.33
2023-09-08T15:13:52.117Z,27.96
2023-09-08T15:16:19.992Z,27.86
2023-09-08T15:18:47.809Z,27.83
2023-09-08T15:21:16.474Z,27.16
2023-09-08T15:23:45.460Z,27.26
2023-09-08T15:26:13.333Z,26.87
2023-09-08T15:28:41.270Z,27.20
2023-09-08T15:31:09.267Z,27.00
2023-09-08T15:33:39.177Z,26.84
2023-09-08T15:36:07.627Z,27.25
2023-09-08T15:38:35.473Z,26.77
2023-09-08T15:41:03.339Z,27.09
2023-09-08T15:43:31.145Z,27.13
2023-09-08T15:45:59.733Z,27.02
2023-09-08T15:48:27.527Z,27.41
2023-09-08T15:50:55.471Z,27.40
2023-09-08T15:53:23.336Z,27.03
2023-09-08T15:55:51.480Z,27.23
2023-09-08T15:58:20.278Z,26.84
2023-09-08T16:00:48.198Z,27.27
2023-09-08T16:03:16.101Z,28.48
2023-09-08T16:05:45.107Z,30.39
2023-09-08T16:08:12.912Z,32.41
2023-09-08T16:10:40.788Z,33.79
2023-09-08T16:13:08.881Z,35.80
2023-09-08T16:15:36.812Z,36.15
2023-09-08T16:20:34.244Z,38.29
2023-09-08T16:23:02.113Z,38.60
2023-09-08T16:25:30.531Z,39.28
2023-09-08T16:27:58.340Z,39.64
2023-09-08T16:30:26.196Z,40.16
2023-09-08T16:32:54.141Z,40.77
2023-09-08T16:35:22.043Z,40.58
2023-09-08T16:37:49.817Z,41.21
2023-09-08T16:40:18.059Z,40.92
2023-09-08T16:42:46.178Z,40.97
2023-09-08T16:45:15.526Z,41.57
2023-09-08T16:47:44.207Z,41.91
2023-09-08T16:50:12.024Z,41.83
2023-09-08T16:52:39.916Z,41.81
2023-09-08T16:55:12.765Z,42.08
2023-09-08T16:57:40.894Z,42.52
2023-09-08T17:00:10.500Z,42.31
2023-09-08T17:02:38.716Z,42.62
2023-09-08T17:05:06.688Z,42.63
2023-09-08T17:07:35.312Z,42.35
2023-09-08T17:10:04.928Z,42.55
2023-09-08T17:12:33.043Z,43.04
2023-09-08T17:15:01.006Z,42.98
2023-09-08T17:17:28.910Z,43.47
2023-09-08T17:19:57.727Z,43.61
2023-09-08T17:22:25.876Z,43.87
2023-09-08T17:24:54.763Z,43.69
2023-09-08T17:27:22.603Z,44.40
2023-09-08T17:29:50.266Z,44.61
2023-09-08T17:32:18.462Z,44.30
2023-09-08T17:34:47.716Z,45.02
2023-09-08T17:37:17.760Z,45.23
2023-09-08T17:39:45.853Z,45.46
2023-09-08T17:42:13.723Z,45.92
2023-09-08T17:44:43.025Z,45.71
2023-09-08T17:47:13.771Z,45.84
2023-09-08T17:49:41.776Z,45.96
2023-09-08T17:52:09.677Z,46.57
2023-09-08T17:54:37.660Z,46.20
2023-09-08T17:57:05.582Z,46.08
2023-09-08T17:59:33.370Z,46.54
2023-09-08T18:02:01.809Z,46.95
2023-09-08T18:04:29.929Z,47.17
2023-09-08T18:06:58.284Z,47.13
2023-09-08T18:09:26.317Z,47.42
2023-09-08T18:11:54.271Z,47.91
2023-09-08T18:14:22.200Z,47.61
2023-09-08T18:16:51.290Z,48.38
2023-09-08T18:19:19.140Z,48.20
2023-09-08T18:21:46.968Z,48.77
2023-09-08T18:24:14.852Z,48.89
2023-09-08T18:26:43.145Z,48.81
2023-09-08T18:29:11.411Z,49.27
2023-09-08T18:31:39.352Z,49.31
2023-09-08T18:34:07.343Z,49.71
2023-09-08T18:36:35.075Z,50.55
2023-09-08T18:39:03.008Z,50.47
2023-09-08T18:41:30.886Z,50.20
2023-09-08T18:43:58.732Z,50.98
2023-09-08T18:46:26.725Z,51.07
2023-09-08T18:48:54.608Z,51.68
2023-09-08T18:51:23.061Z,51.09
2023-09-08T18:53:50.975Z,51.91
2023-09-08T18:56:19.416Z,51.62
2023-09-08T18:58:47.502Z,52.10
2023-09-08T19:01:15.365Z,52.27
2023-09-08T19:03:43.227Z,51.88
2023-09-08T19:06:11.406Z,52.00
2023-09-08T19:08:40.391Z,52.43
2023-09-08T19:11:08.221Z,52.11
2023-09-08T19:13:36.644Z,52.64
2023-09-08T19:16:04.932Z,52.38
2023-09-08T19:18:32.817Z,53.04
2023-09-08T19:21:00.763Z,52.49
2023-09-08T19:23:29.256Z,52.85
2023-09-08T19:25:56.983Z,52.98
2023-09-08T19:28:24.929Z,53.05
2023-09-08T19:30:53.076Z,53.34
2023-09-08T19:33:21.102Z,53.15
2023-09-08T19:35:49.307Z,52.92
2023-09-08T19:38:18.926Z,53.70
2023-09-08T19:40:46.808Z,53.74
2023-09-08T19:43:14.608Z,53.47
2023-09-08T19:45:42.603Z,53.65
2023-09-08T19:48:10.697Z,53.99
2023-09-08T19:50:38.779Z,54.11
2023-09-08T19:53:06.959Z,54.03
2023-09-08T19:55:35.276Z,53.79
2023-09-08T19:58:03.628Z,54.19
2023-09-08T20:00:31.540Z,54.19
2023-09-08T20:02:59.447Z,54.00
2023-09-08T20:05:28.295Z,54.14
2023-09-08T20:07:56.291Z,54.44
2023-09-08T20:10:24.191Z,54.49
2023-09-08T20:12:51.991Z,55.05
2023-09-08T20:15:19.869Z,55.34
2023-09-08T20:17:48.662Z,55.42
2023-09-08T20:20:16.700Z,55.05
2023-09-08T20:22:44.620Z,55.31
2023-09-08T20:25:15.016Z,55.51
2023-09-08T20:27:42.902Z,55.70
2023-09-08T20:30:10.820Z,55.73
2023-09-08T20:32:38.804Z,56.11
2023-09-08T20:35:06.638Z,56.01
2023-09-08T20:37:34.630Z,56.18
2023-09-08T20:40:02.350Z,55.78
2023-09-08T20:42:30.520Z,55.71
2023-09-08T20:44:58.480Z,56.10
2023-09-08T20:47:26.298Z,55.70
2023-09-08T20:49:54.107Z,56.26
2023-09-08T20:52:22.029Z,56.32
2023-09-08T20:54:50.396Z,56.41
2023-09-08T20:57:20.008Z,56.39
2023-09-08T20:59:47.753Z,56.29
2023-09-08T21:02:16.826Z,56.92
2023-09-08T21:04:45.351Z,56.67
2023-09-08T21:07:13.312Z,56.50
2023-09-08T21:09:41.108Z,56.60
2023-09-08T21:12:08.903Z,56.58
2023-09-08T21:14:36.781Z,56.68
2023-09-08T21:17:05.633Z,57.23
2023-09-08T21:19:34.040Z,57.20
2023-09-08T21:22:02.006Z,57.02
2023-09-08T21:24:29.747Z,57.30
2023-09-08T21:27:00.621Z,56.98
2023-09-08T21:29:28.748Z,57.38
2023-09-08T21:31:57.719Z,57.10
2023-09-08T21:34:26.179Z,57.02
2023-09-08T21:36:54.235Z,57.72
2023-09-08T21:39:21.937Z,57.44
2023-09-08T21:41:49.923Z,57.83
2023-09-08T21:44:17.766Z,57.97
2023-09-08T21:46:45.518Z,57.73
2023-09-08T21:49:13.389Z,57.99
2023-09-08T21:51:41.194Z,57.73
2023-09-08T21:54:09.126Z,58.16
2023-09-08T21:56:37.312Z,58.15
2023-09-08T21:59:05.080Z,58.11
2023-09-08T22:01:32.907Z,58.73
2023-09-08T22:04:01.034Z,58.73
2023-09-08T22:06:28.885Z,58.54
2023-09-08T22:08:57.109Z,58.84
2023-09-08T22:11:25.312Z,59.17
2023-09-08T22:13:53.176Z,58.89
2023-09-08T22:16:21.164Z,58.73
2023-09-08T22:18:49.632Z,59.03
2023-09-08T22:21:17.567Z,58.56
2023-09-08T22:23:45.240Z,59.39
2023-09-08T22:26:12.858Z,58.82
2023-09-08T22:28:41.293Z,58.80
2023-09-08T22:31:09.060Z,59.28
2023-09-08T22:33:37.556Z,58.85
2023-09-08T22:36:05.855Z,59.28
2023-09-08T22:38:34.172Z,59.02
2023-09-08T22:41:02.700Z,59.07
2023-09-08T22:43:30.395Z,59.03
2023-09-08T22:45:58.171Z,59.15
2023-09-08T22:48:25.966Z,59.05
2023-09-08T22:50:53.698Z,59.59
2023-09-08T22:53:21.434Z,59.68
2023-09-08T22:55:49.537Z,59.63
2023-09-08T22:58:17.475Z,59.67
2023-09-08T23:00:45.225Z,59.75
2023-09-08T23:03:12.970Z,59.89
2023-09-08T23:05:40.759Z,59.61
2023-09-08T23:08:08.450Z,60.12
2023-09-08T23:10:36.237Z,59.72
2023-09-08T23:13:04.129Z,60.46
2023-09-08T23:15:33.446Z,60.17
2023-09-08T23:18:01.150Z,59.70
2023-09-08T23:20:28.827Z,59.98
2023-09-08T23:22:56.985Z,60.64
2023-09-08T23:25:24.661Z,60.56
2023-09-08T23:27:52.328Z,60.25
2023-09-08T23:30:19.982Z,60.23
2023-09-08T23:32:47.718Z,60.33
2023-09-08T23:35:15.676Z,60.47
2023-09-08T23:37:43.596Z,60.77
2023-09-08T23:40:12.991Z,60.88
2023-09-08T23:42:40.801Z,61.34
2023-09-08T23:45:08.471Z,61.18
2023-09-08T23:47:36.268Z,61.50
2023-09-08T23:50:04.571Z,61.52
2023-09-08T23:52:32.212Z,61.29
2023-09-08T23:54:59.822Z,61.59
2023-09-08T23:57:27.583Z,61.21
2023-09-08T23:59:55.288Z,61.13
